createdAt,value
2018-05-31T00:00:05.798Z,18.62
2018-05-31T00:02:34.513Z,18.56
2018-05-31T00:05:03.047Z,17.62
2018-05-31T00:07:32.597Z,17.04
2018-05-31T00:10:02.046Z,16.93
2018-05-31T00:12:30.591Z,16.41
2018-05-31T00:14:59.725Z,16.20
2018-05-31T00:17:29.050Z,16.29
2018-05-31T00:19:58.326Z,16.22
2018-05-31T00:22:27.646Z,16.25
2018-05-31T00:24:56.371Z,16.45
2018-05-31T00:27:24.890Z,16.55
2018-05-31T00:29:54.365Z,16.67
2018-05-31T00:32:23.041Z,16.72
2018-05-31T00:34:51.565Z,16.79
2018-05-31T00:37:20.882Z,16.88
2018-05-31T00:39:49.385Z,16.81
2018-05-31T00:42:17.894Z,16.85
2018-05-31T00:44:46.506Z,16.89
2018-05-31T00:47:15.030Z,16.89
2018-05-31T00:49:43.533Z,16.92
2018-05-31T00:52:12.089Z,16.89
2018-05-31T00:54:40.650Z,16.97
2018-05-31T00:57:10.106Z,16.94
2018-05-31T00:59:39.912Z,16.96
2018-05-31T01:02:08.522Z,17.11
2018-05-31T01:04:37.799Z,17.22
2018-05-31T01:07:06.622Z,17.13
2018-05-31T01:09:35.897Z,17.12
2018-05-31T01:12:04.571Z,17.19
2018-05-31T01:14:33.140Z,17.28
2018-05-31T01:17:01.655Z,17.29
2018-05-31T01:19:30.162Z,17.29
2018-05-31T01:21:58.942Z,17.30
2018-05-31T01:24:27.460Z,17.10
2018-05-31T01:26:55.970Z,17.36
2018-05-31T01:29:24.538Z,17.38
2018-05-31T01:31:53.243Z,17.24
2018-05-31T01:34:22.378Z,17.31
2018-05-31T01:36:50.939Z,17.39
2018-05-31T01:39:19.453Z,17.32
2018-05-31T01:41:47.985Z,17.37
2018-05-31T01:44:17.482Z,17.27
2018-05-31T01:46:46.999Z,17.38
2018-05-31T01:49:15.527Z,17.34
2018-05-31T01:51:44.844Z,17.12
2018-05-31T01:54:13.500Z,17.24
2018-05-31T01:56:42.974Z,17.11
2018-05-31T01:59:12.618Z,17.06
2018-05-31T02:01:41.142Z,17.07
2018-05-31T02:04:09.645Z,16.94
2018-05-31T02:06:38.215Z,16.92
2018-05-31T02:09:06.757Z,16.92
2018-05-31T02:11:35.354Z,16.95
2018-05-31T02:14:03.942Z,16.87
2018-05-31T02:16:32.545Z,16.64
2018-05-31T02:19:01.077Z,16.67
2018-05-31T02:21:30.413Z,16.67
2018-05-31T02:23:58.929Z,16.53
2018-05-31T02:26:27.437Z,16.47
2018-05-31T02:28:56.965Z,16.41
2018-05-31T02:31:25.644Z,16.41
2018-05-31T02:33:54.377Z,16.15
2018-05-31T02:36:23.352Z,16.04
2018-05-31T02:38:51.869Z,16.15
2018-05-31T02:41:21.291Z,16.00
2018-05-31T02:43:50.954Z,16.02
2018-05-31T02:46:20.278Z,16.10
2018-05-31T02:48:48.786Z,16.14
2018-05-31T02:51:18.278Z,16.13
2018-05-31T02:53:47.559Z,16.08
2018-05-31T02:56:16.235Z,15.89
2018-05-31T02:58:44.906Z,15.92
2018-05-31T03:01:13.413Z,16.13
2018-05-31T03:03:41.929Z,16.19
2018-05-31T03:06:10.906Z,16.10
2018-05-31T03:08:39.425Z,16.19
2018-05-31T03:11:07.942Z,16.15
2018-05-31T03:13:36.949Z,16.13
2018-05-31T03:16:05.470Z,16.14
2018-05-31T03:18:34.008Z,16.12
2018-05-31T03:21:02.813Z,16.21
2018-05-31T03:23:31.314Z,16.15
2018-05-31T03:25:59.889Z,16.06
2018-05-31T03:28:28.641Z,16.04
2018-05-31T03:30:57.419Z,16.27
2018-05-31T03:33:26.102Z,16.50
2018-05-31T03:35:54.789Z,16.48
2018-05-31T03:38:23.297Z,16.60
2018-05-31T03:40:51.813Z,16.59
2018-05-31T03:43:20.579Z,16.50
2018-05-31T03:45:49.989Z,16.61
2018-05-31T03:48:19.269Z,16.65
2018-05-31T03:50:47.841Z,16.70
2018-05-31T03:53:16.394Z,16.75
2018-05-31T03:55:45.037Z,16.74
2018-05-31T03:58:13.615Z,17.12
2018-05-31T04:00:42.889Z,17.20
2018-05-31T04:03:11.403Z,17.31
2018-05-31T04:05:41.113Z,17.38
2018-05-31T04:08:09.622Z,17.57
2018-05-31T04:10:38.154Z,17.69
2018-05-31T04:13:06.722Z,17.93
2018-05-31T04:15:35.226Z,17.94
2018-05-31T04:18:04.517Z,18.15
2018-05-31T04:20:33.846Z,18.09
2018-05-31T04:23:02.390Z,18.32
2018-05-31T04:25:30.895Z,18.45
2018-05-31T04:28:00.215Z,18.56
2018-05-31T04:30:28.946Z,18.67
2018-05-31T04:32:57.450Z,18.70
2018-05-31T04:35:26.798Z,18.92
2018-05-31T04:37:55.293Z,18.91
2018-05-31T04:40:23.874Z,19.15
2018-05-31T04:42:52.410Z,19.31
2018-05-31T04:45:21.697Z,19.70
2018-05-31T04:47:50.987Z,20.32
2018-05-31T04:50:19.931Z,20.88
2018-05-31T04:52:48.459Z,21.44
2018-05-31T04:55:18.510Z,21.66
2018-05-31T04:57:48.135Z,22.00
2018-05-31T05:00:16.646Z,22.36
2018-05-31T05:02:45.343Z,22.42
2018-05-31T05:05:14.846Z,22.75
2018-05-31T05:07:43.366Z,23.20
2018-05-31T05:10:11.890Z,23.31
2018-05-31T05:12:40.455Z,23.45
2018-05-31T05:15:08.974Z,23.83
2018-05-31T05:17:37.660Z,24.06
2018-05-31T05:20:06.798Z,24.20
2018-05-31T05:22:36.261Z,24.47
2018-05-31T05:25:04.810Z,24.52
2018-05-31T05:27:33.741Z,24.51
2018-05-31T05:30:03.239Z,24.56
2018-05-31T05:32:31.803Z,24.67
2018-05-31T05:35:00.426Z,24.86
2018-05-31T05:37:28.962Z,24.68
2018-05-31T05:39:58.232Z,25.19
2018-05-31T05:42:27.938Z,25.05
2018-05-31T05:44:57.205Z,25.17
2018-05-31T05:47:25.738Z,25.78
2018-05-31T05:49:55.221Z,25.68
2018-05-31T05:52:24.494Z,26.04
2018-05-31T05:54:53.002Z,26.01
2018-05-31T05:57:22.714Z,25.95
2018-05-31T05:59:51.238Z,26.42
2018-05-31T06:02:19.752Z,26.39
2018-05-31T06:04:48.309Z,26.69
2018-05-31T06:07:16.813Z,27.00
2018-05-31T06:09:46.258Z,27.20
2018-05-31T06:12:15.406Z,27.35
2018-05-31T06:14:43.933Z,27.28
2018-05-31T06:17:13.210Z,27.29
2018-05-31T06:19:41.761Z,27.35
2018-05-31T06:22:10.302Z,27.31
2018-05-31T06:24:38.974Z,27.26
2018-05-31T06:27:07.790Z,27.25
2018-05-31T06:29:36.318Z,27.55
2018-05-31T06:32:04.845Z,27.93
2018-05-31T06:34:33.406Z,28.47
2018-05-31T06:37:01.938Z,28.38
2018-05-31T06:39:30.433Z,27.96
2018-05-31T06:41:59.366Z,28.50
2018-05-31T06:44:28.633Z,28.43
2018-05-31T06:46:57.167Z,28.96
2018-05-31T06:49:25.794Z,28.62
2018-05-31T06:51:54.475Z,29.18
2018-05-31T06:54:23.033Z,28.60
2018-05-31T06:56:52.298Z,28.76
2018-05-31T06:59:20.943Z,29.34
2018-05-31T07:01:49.442Z,29.26
2018-05-31T07:04:18.151Z,28.86
2018-05-31T07:06:48.370Z,28.94
2018-05-31T07:09:18.112Z,29.26
2018-05-31T07:11:47.033Z,29.17
2018-05-31T07:14:15.664Z,29.32
2018-05-31T07:16:45.129Z,30.17
2018-05-31T07:19:13.842Z,30.29
2018-05-31T07:21:42.347Z,29.76
2018-05-31T07:24:11.731Z,30.74
2018-05-31T07:26:41.238Z,30.91
2018-05-31T07:29:10.505Z,30.83
2018-05-31T07:31:38.994Z,29.57
2018-05-31T07:34:07.701Z,29.70
2018-05-31T07:36:36.194Z,30.68
2018-05-31T07:39:05.558Z,31.01
2018-05-31T07:41:34.373Z,30.92
2018-05-31T07:44:02.902Z,31.09
2018-05-31T07:46:31.569Z,31.18
2018-05-31T07:49:00.530Z,31.47
2018-05-31T07:51:29.185Z,31.73
2018-05-31T07:53:57.690Z,31.61
2018-05-31T07:56:26.656Z,31.78
2018-05-31T07:58:55.341Z,32.09
2018-05-31T08:01:23.857Z,33.00
2018-05-31T08:03:52.542Z,32.48
2018-05-31T08:06:21.300Z,31.80
2018-05-31T08:08:49.985Z,31.60
2018-05-31T08:11:18.722Z,31.54
2018-05-31T08:13:47.231Z,32.40
2018-05-31T08:16:15.801Z,32.89
2018-05-31T08:18:44.465Z,32.98
2018-05-31T08:21:13.752Z,31.98
2018-05-31T08:23:42.395Z,32.14
2018-05-31T08:26:10.947Z,32.75
2018-05-31T08:28:39.439Z,33.26
2018-05-31T08:31:07.954Z,32.77
2018-05-31T08:33:36.869Z,32.57
2018-05-31T08:36:06.449Z,32.77
2018-05-31T08:38:35.135Z,32.60
2018-05-31T08:41:04.058Z,32.54
2018-05-31T08:43:33.437Z,33.25
2018-05-31T08:46:01.934Z,33.71
2018-05-31T08:48:31.557Z,34.31
2018-05-31T08:51:00.196Z,33.73
2018-05-31T08:53:29.508Z,33.02
2018-05-31T08:55:58.673Z,33.62
2018-05-31T08:58:27.189Z,33.65
2018-05-31T09:00:57.238Z,34.02
2018-05-31T09:03:25.825Z,34.26
2018-05-31T09:23:57.585Z,33.82
2018-05-31T09:26:26.231Z,34.21
2018-05-31T09:28:54.770Z,34.29
2018-05-31T09:31:23.612Z,34.21
2018-05-31T09:33:52.146Z,34.37
2018-05-31T09:36:20.671Z,34.76
2018-05-31T09:38:49.363Z,35.16
2018-05-31T09:41:17.917Z,33.93
2018-05-31T09:43:46.434Z,34.16
2018-05-31T09:46:15.249Z,34.35
2018-05-31T09:48:43.944Z,33.13
2018-05-31T09:51:12.681Z,33.02
2018-05-31T09:53:41.258Z,32.85
2018-05-31T09:56:10.053Z,33.29
2018-05-31T09:58:38.610Z,33.01
2018-05-31T10:01:07.186Z,33.34
2018-05-31T10:03:35.703Z,33.60
2018-05-31T10:06:04.397Z,33.53
2018-05-31T10:08:33.114Z,32.53
2018-05-31T10:11:01.809Z,33.10
2018-05-31T10:13:30.502Z,33.10
2018-05-31T10:15:59.395Z,33.39
2018-05-31T10:18:28.065Z,32.83
2018-05-31T10:20:57.334Z,33.25
2018-05-31T10:23:26.112Z,33.06
2018-05-31T10:25:55.422Z,33.42
2018-05-31T10:28:23.920Z,34.20
2018-05-31T10:30:52.473Z,34.15
2018-05-31T10:33:20.965Z,33.44
2018-05-31T10:35:49.458Z,33.77
2018-05-31T10:38:18.154Z,33.42
2018-05-31T10:40:47.522Z,33.89
2018-05-31T10:43:16.022Z,33.25
2018-05-31T10:45:44.706Z,33.05
2018-05-31T10:48:13.671Z,33.82
2018-05-31T10:50:42.265Z,34.25
2018-05-31T10:53:11.191Z,34.50
2018-05-31T10:55:40.497Z,35.16
2018-05-31T10:58:09.182Z,33.57
2018-05-31T11:00:37.929Z,33.94
2018-05-31T11:03:06.617Z,33.94
2018-05-31T11:05:35.161Z,33.82
2018-05-31T11:08:04.910Z,33.65
2018-05-31T11:10:33.600Z,33.12
2018-05-31T11:13:02.101Z,33.31
2018-05-31T11:15:30.797Z,33.43
2018-05-31T11:18:00.086Z,34.56
2018-05-31T11:20:29.525Z,33.68
2018-05-31T11:22:58.153Z,34.03
2018-05-31T11:25:26.883Z,34.80
2018-05-31T11:27:55.413Z,34.57
2018-05-31T11:30:24.025Z,34.28
2018-05-31T11:32:53.313Z,35.11
2018-05-31T11:35:22.090Z,33.90
2018-05-31T11:37:50.771Z,34.96
2018-05-31T11:40:19.426Z,35.32
2018-05-31T11:42:48.137Z,34.79
2018-05-31T11:45:16.714Z,35.34
2018-05-31T11:47:45.288Z,35.25
2018-05-31T11:50:13.821Z,34.72
2018-05-31T11:52:43.858Z,34.38
2018-05-31T11:55:12.602Z,35.26
2018-05-31T11:57:42.098Z,35.48
2018-05-31T12:00:11.091Z,35.17
2018-05-31T12:02:39.627Z,34.60
2018-05-31T12:05:08.301Z,34.27
2018-05-31T12:07:36.893Z,34.34
2018-05-31T12:10:05.481Z,34.67
2018-05-31T12:12:34.113Z,34.63
2018-05-31T12:15:02.839Z,35.00
2018-05-31T12:17:31.620Z,34.26
2018-05-31T12:20:00.375Z,34.45
2018-05-31T12:22:28.958Z,34.99
2018-05-31T12:24:57.486Z,33.70
2018-05-31T12:27:26.012Z,35.09
2018-05-31T12:29:54.814Z,34.56
2018-05-31T12:32:23.500Z,33.98
2018-05-31T12:34:52.220Z,34.34
2018-05-31T12:37:21.007Z,34.87
2018-05-31T12:39:49.551Z,34.34
2018-05-31T12:42:18.230Z,34.36
2018-05-31T12:44:47.162Z,34.59
2018-05-31T12:47:16.453Z,34.82
2018-05-31T12:49:45.937Z,34.48
2018-05-31T12:52:15.334Z,35.00
2018-05-31T12:54:44.127Z,34.51
2018-05-31T12:57:12.674Z,34.05
2018-05-31T12:59:41.262Z,34.27
2018-05-31T13:02:09.787Z,34.65
2018-05-31T13:04:38.314Z,34.29
2018-05-31T13:07:06.892Z,34.81
2018-05-31T13:09:35.653Z,34.53
2018-05-31T13:12:04.210Z,35.11
2018-05-31T13:14:32.998Z,34.92
2018-05-31T13:17:01.682Z,34.96
2018-05-31T13:19:30.211Z,34.95
2018-05-31T13:21:59.257Z,35.67
2018-05-31T13:24:27.782Z,35.06
2018-05-31T13:26:56.415Z,34.92
2018-05-31T13:29:25.249Z,35.00
2018-05-31T13:31:53.765Z,35.01
2018-05-31T13:34:22.284Z,35.76
2018-05-31T13:36:51.093Z,35.50
2018-05-31T13:39:19.649Z,34.45
2018-05-31T13:41:48.174Z,34.10
2018-05-31T13:44:16.945Z,34.08
2018-05-31T13:46:46.423Z,34.23
2018-05-31T13:49:15.116Z,34.26
2018-05-31T13:51:43.689Z,33.83
2018-05-31T13:54:12.431Z,33.74
2018-05-31T13:56:40.934Z,33.89
2018-05-31T13:59:09.795Z,34.65
2018-05-31T14:01:38.529Z,34.70
2018-05-31T14:04:07.162Z,34.74
2018-05-31T14:06:37.029Z,33.24
2018-05-31T14:09:06.636Z,33.96
2018-05-31T14:11:35.145Z,34.51
2018-05-31T14:14:03.720Z,34.36
2018-05-31T14:16:32.265Z,34.13
2018-05-31T14:19:01.714Z,34.14
2018-05-31T14:21:30.286Z,34.10
2018-05-31T14:23:59.550Z,34.33
2018-05-31T14:26:28.050Z,34.90
2018-05-31T14:28:56.834Z,33.86
2018-05-31T14:31:26.126Z,34.02
2018-05-31T14:33:54.625Z,33.74
2018-05-31T14:36:24.118Z,33.55
2018-05-31T14:38:52.622Z,34.50
2018-05-31T14:41:21.242Z,34.24
2018-05-31T14:43:51.022Z,33.93
2018-05-31T14:46:19.718Z,33.96
2018-05-31T14:48:48.430Z,34.27
2018-05-31T14:51:17.174Z,33.29
2018-05-31T14:53:46.515Z,33.81
2018-05-31T14:56:15.038Z,33.62
2018-05-31T14:58:45.531Z,34.36
2018-05-31T15:01:14.150Z,33.67
2018-05-31T15:03:42.790Z,33.46
2018-05-31T15:06:11.382Z,33.62
2018-05-31T15:08:39.875Z,33.37
2018-05-31T15:11:08.547Z,33.33
2018-05-31T15:13:37.166Z,33.36
2018-05-31T15:16:05.677Z,33.77
2018-05-31T15:18:34.214Z,33.27
2018-05-31T15:21:03.734Z,33.30
2018-05-31T15:23:32.254Z,33.40
2018-05-31T15:26:00.750Z,32.73
2018-05-31T15:28:29.449Z,33.24
2018-05-31T15:30:57.959Z,33.28
2018-05-31T15:33:26.453Z,33.46
2018-05-31T15:35:55.768Z,33.21
2018-05-31T15:38:25.082Z,33.14
2018-05-31T15:40:53.744Z,32.48
2018-05-31T15:43:23.446Z,33.09
2018-05-31T15:45:52.782Z,32.77
2018-05-31T15:48:21.449Z,33.12
2018-05-31T15:50:49.981Z,32.92
2018-05-31T15:53:18.526Z,32.92
2018-05-31T15:55:47.241Z,32.45
2018-05-31T15:58:16.834Z,32.26
2018-05-31T16:00:45.347Z,32.29
2018-05-31T16:03:13.842Z,32.02
2018-05-31T16:05:42.553Z,31.91
2018-05-31T16:08:11.825Z,31.96
2018-05-31T16:10:40.328Z,31.60
2018-05-31T16:13:10.022Z,31.97
2018-05-31T16:15:38.530Z,32.19
2018-05-31T16:18:07.038Z,31.96
2018-05-31T16:20:35.840Z,31.99
2018-05-31T16:23:04.376Z,31.95
2018-05-31T16:25:33.641Z,31.99
2018-05-31T16:28:02.345Z,32.00
2018-05-31T16:30:30.838Z,31.80
2018-05-31T16:33:00.154Z,31.51
2018-05-31T16:35:28.973Z,31.52
2018-05-31T16:37:57.477Z,31.56
2018-05-31T16:40:25.974Z,31.56
2018-05-31T16:42:55.449Z,31.23
2018-05-31T16:45:23.954Z,31.08
2018-05-31T16:47:52.470Z,31.23
2018-05-31T16:50:21.779Z,30.98
2018-05-31T16:52:50.445Z,31.19
2018-05-31T16:55:19.895Z,31.02
2018-05-31T16:57:48.446Z,31.04
2018-05-31T17:00:16.987Z,31.05
2018-05-31T17:02:45.565Z,30.92
2018-05-31T17:05:14.429Z,30.41
2018-05-31T17:07:43.014Z,30.31
2018-05-31T17:10:11.559Z,30.18
2018-05-31T17:12:40.468Z,30.41
2018-05-31T17:15:09.007Z,30.24
2018-05-31T17:17:37.714Z,30.08
2018-05-31T17:20:06.682Z,30.05
2018-05-31T17:22:35.442Z,29.97
2018-05-31T17:25:04.330Z,29.69
2018-05-31T17:27:33.381Z,29.47
2018-05-31T17:30:03.813Z,29.22
2018-05-31T17:32:33.654Z,29.10
2018-05-31T17:35:02.166Z,28.91
2018-05-31T17:37:31.750Z,28.75
2018-05-31T17:40:01.597Z,28.48
2018-05-31T17:42:30.904Z,28.21
2018-05-31T17:45:00.364Z,27.98
2018-05-31T17:47:29.456Z,27.75
2018-05-31T17:49:58.141Z,27.47
2018-05-31T17:52:26.661Z,27.25
2018-05-31T17:54:56.856Z,27.02
2018-05-31T17:57:25.636Z,26.84
2018-05-31T17:59:54.167Z,26.67
2018-05-31T18:02:23.657Z,26.59
2018-05-31T18:04:52.977Z,26.40
2018-05-31T18:07:22.549Z,26.24
2018-05-31T18:09:52.287Z,26.10
2018-05-31T18:12:21.735Z,25.94
2018-05-31T18:14:50.242Z,25.82
2018-05-31T18:17:19.014Z,25.68
2018-05-31T18:19:47.514Z,25.59
2018-05-31T18:22:16.150Z,25.50
2018-05-31T18:24:45.126Z,25.31
2018-05-31T18:27:13.855Z,25.12
2018-05-31T18:29:42.539Z,25.06
2018-05-31T18:32:11.106Z,24.94
2018-05-31T18:34:39.642Z,24.85
2018-05-31T18:37:08.144Z,24.81
2018-05-31T18:39:37.450Z,24.85
2018-05-31T18:42:06.904Z,24.91
2018-05-31T18:44:35.414Z,24.87
2018-05-31T18:47:03.983Z,24.84
2018-05-31T18:49:32.739Z,24.83
2018-05-31T18:52:01.239Z,24.79
2018-05-31T18:54:29.786Z,24.78
2018-05-31T18:56:58.294Z,24.80
2018-05-31T18:59:26.846Z,24.79
2018-05-31T19:01:55.388Z,24.77
2018-05-31T19:04:24.446Z,24.73
2018-05-31T19:06:53.170Z,24.65
2018-05-31T19:09:27.990Z,24.54
2018-05-31T19:11:56.510Z,24.52
2018-05-31T19:14:25.233Z,24.57
2018-05-31T19:16:53.936Z,24.70
2018-05-31T19:19:27.891Z,24.72
2018-05-31T19:21:56.925Z,24.70
2018-05-31T19:24:30.797Z,24.69
2018-05-31T19:26:59.487Z,24.62
2018-05-31T19:29:27.988Z,24.46
2018-05-31T19:31:56.488Z,24.41
2018-05-31T19:34:25.218Z,24.30
2018-05-31T19:36:59.137Z,24.23
2018-05-31T19:39:27.893Z,24.16
2018-05-31T19:41:57.162Z,24.09
2018-05-31T19:44:31.371Z,24.12
2018-05-31T19:47:11.733Z,24.18
2018-05-31T19:49:40.654Z,24.17
2018-05-31T19:52:14.730Z,24.16
2018-05-31T19:54:43.683Z,24.06
2018-05-31T19:57:12.190Z,23.94
2018-05-31T19:59:46.573Z,23.84
2018-05-31T20:02:21.274Z,23.68
2018-05-31T20:04:49.907Z,23.69
2018-05-31T20:07:18.569Z,23.58
2018-05-31T20:09:47.839Z,23.48
2018-05-31T20:12:21.257Z,23.36
2018-05-31T20:14:47.852Z,23.18
2018-05-31T20:17:16.545Z,23.05
2018-05-31T20:19:45.117Z,22.95
2018-05-31T20:22:13.811Z,22.86
2018-05-31T20:24:42.360Z,22.77
2018-05-31T20:27:11.073Z,22.63
2018-05-31T20:29:39.583Z,22.55
2018-05-31T20:32:08.346Z,22.43
2018-05-31T20:34:36.894Z,22.30
2018-05-31T20:37:05.422Z,22.29
2018-05-31T20:39:33.942Z,22.18
2018-05-31T20:42:04.662Z,22.13
2018-05-31T20:44:33.964Z,22.14
2018-05-31T20:47:03.435Z,22.14
2018-05-31T20:49:33.626Z,22.05
2018-05-31T20:52:02.271Z,21.94
2018-05-31T20:54:31.561Z,21.94
2018-05-31T20:57:00.254Z,21.91
2018-05-31T20:59:28.750Z,21.89
2018-05-31T21:01:58.101Z,21.79
2018-05-31T21:04:27.095Z,21.70
2018-05-31T21:06:55.602Z,21.64
2018-05-31T21:09:24.099Z,21.50
2018-05-31T21:11:54.133Z,21.40
2018-05-31T21:14:23.378Z,21.34
2018-05-31T21:16:51.871Z,21.28
2018-05-31T21:19:20.438Z,21.27
2018-05-31T21:21:48.941Z,21.25
2018-05-31T21:24:18.946Z,21.35
2018-05-31T21:26:47.653Z,21.30
2018-05-31T21:29:16.175Z,21.36
2018-05-31T21:31:44.687Z,21.43
2018-05-31T21:34:13.610Z,21.31
2018-05-31T21:36:42.105Z,21.38
2018-05-31T21:39:11.559Z,21.30
2018-05-31T21:41:40.493Z,21.17
2018-05-31T21:44:09.795Z,21.22
2018-05-31T21:46:39.074Z,21.35
2018-05-31T21:49:07.774Z,21.36
2018-05-31T21:51:37.344Z,21.49
2018-05-31T21:54:05.862Z,21.43
2018-05-31T21:56:34.773Z,21.24
2018-05-31T21:59:03.282Z,21.29
2018-05-31T22:01:31.787Z,21.13
2018-05-31T22:04:00.502Z,21.09
2018-05-31T22:06:29.764Z,21.02
2018-05-31T22:08:58.338Z,20.97
2018-05-31T22:11:27.101Z,20.88
2018-05-31T22:13:55.829Z,20.79
2018-05-31T22:16:25.264Z,20.84
2018-05-31T22:18:54.765Z,20.91
2018-05-31T22:21:24.034Z,20.78
2018-05-31T22:23:52.682Z,20.60
2018-05-31T22:26:21.330Z,20.38
2018-05-31T22:28:49.945Z,20.22
2018-05-31T22:31:18.474Z,20.03
2018-05-31T22:33:47.395Z,20.09
2018-05-31T22:36:16.661Z,20.20
2018-05-31T22:38:45.162Z,20.13
2018-05-31T22:41:13.850Z,19.97
2018-05-31T22:43:43.126Z,19.82
2018-05-31T22:46:11.806Z,19.75
2018-05-31T22:48:40.353Z,19.75
2018-05-31T22:51:09.609Z,19.73
2018-05-31T22:53:39.609Z,19.66
2018-05-31T22:56:08.364Z,19.57
2018-05-31T22:58:36.854Z,19.55
2018-05-31T23:01:05.350Z,19.57
2018-05-31T23:03:33.970Z,19.62
2018-05-31T23:06:02.501Z,19.65
2018-05-31T23:08:36.832Z,19.73
2018-05-31T23:11:05.420Z,19.75
2018-05-31T23:13:34.110Z,19.76
2018-05-31T23:16:02.831Z,19.45
2018-05-31T23:18:33.614Z,18.97
2018-05-31T23:21:02.313Z,18.68
2018-05-31T23:23:31.404Z,18.47
2018-05-31T23:25:59.905Z,18.33
2018-05-31T23:28:28.398Z,18.21
2018-05-31T23:30:56.942Z,18.11
2018-05-31T23:33:25.434Z,17.94
2018-05-31T23:35:54.217Z,18.17
2018-05-31T23:38:22.941Z,18.27
2018-05-31T23:40:52.205Z,17.99
2018-05-31T23:43:20.854Z,17.88
2018-05-31T23:45:49.881Z,18.01
2018-05-31T23:48:18.385Z,18.15
2018-05-31T23:50:47.222Z,18.17
2018-05-31T23:53:15.978Z,18.28
2018-05-31T23:55:44.624Z,18.33
2018-05-31T23:58:13.186Z,18.29
